UACC/TSE METAR and TAF weather

Enter ICAO airport designator
Station Type Date Time Source
UACC METAR 2021/05/12 02:00 UTC NOAA

UACC 120200Z 29002MPS 230V300 CAVOK 12/03 Q1026 R04/0///70 NOSIG RMK QFE737/0983


Station Type Date Time Source
UACC Decoded METAR 2021/05/12 02:00 UTC NOAA

Astana, Kazakhstan (UACC) 51-12N 071-27E
May 11, 2021 - 10:00 PM EDT / 2021.05.12 0200 UTC
Wind: from the WNW (290 degrees) at 4 MPH (4 KT) (direction variable):0
Visibility: greater than 7 mile(s):0
Temperature: 53 F (12 C)
Dew Point: 37 F (3 C)
Relative Humidity: 54%
Pressure (altimeter): 30.30 in. Hg (1026 hPa)
ob: UACC 120200Z 29002MPS 230V300 CAVOK 12/03 Q1026 R04/0///70 NOSIG RMK QFE737/0983
cycle: 2

Station Type Date Time Source
UACC TAF 2021/05/11 18:21 UTC NOAA

TAF UACC 111700Z 1118/1218 34003MPS CAVOK TX21/1209Z TN05/1123Z
BECMG 1204/1206 33007MPS

Example: see airport list